Pagrindinis puslapis
METAR-TAF:

METAR-TAF

Oro uostai :

Kemerovas, Rusija

platuma: 55-19-48N, ilguma: 086-04-48E, Aukštis: 260 m

Dabartinis oras

Ataskaita buvo paskelbta 21 minutes, ne 14:00 UTC
Vėjas 6 kt iš Pietų/Pietryčių
Temperatūra 15°C
Drėgmė 59%
Slėgis 1011 hPa
Matomumas 10 km arba daugiau
Išsisklaidę debesys ne aukštis 3300 ft, Liūtiniai kamuoliniai debesys.

METAR: UNEE 291400Z 16003MPS 9999 SCT033CB 15/07 Q1011 R23/CLRD60 NOSIG RMK QFE735

Laikas: 21:21 (14:21 UTC)

Prognozė

Ataskaita buvo paskelbta 3 valandos ir 21 minutes, ne 11:00 UTC
Prognozė galioja nuo 29 metu 12 UTC su 30 metu 12 UTC
Vėjas 6 kt iš Pietų su gūsio iki 16 kt
Matomumas 10 km arba daugiau
Išsisklaidę debesys ne aukštis 3000 ft, Liūtiniai kamuoliniai debesys.
lietus
Tapsmas
nuo 30 metu 00 UTC su 30 metu 03 UTC
Vėjas 6 kt iš Vakarų su gūsio iki 16 kt
Tapsmas
nuo 30 metu 06 UTC su 30 metu 09 UTC
Vėjas 16 kt iš Vakarų/Šiaurės Vakarų su gūsio iki 27 kt

TAF: UNEE 291100Z 2912/3012 18003G08MPS 9999 -SHRA SCT030CB BECMG 3000/3003 26003G08MPS BECMG 3006/3009 29008G14MPS

Orai ataskaitas ir orų prognozės (METAR, TAF).

turimą stotys yra geltonos ir raudonos taškus žemėlapyje.

Perkelti pele per norėdami pamatyti stoties vardą.

Tada spustelėkite, norėdami matyti oro stebėjimo ir prognozės.

Norėdami pakeisti žemėlapį: spustelėkite ant žalios mygtukų su juodo kryžiaus žemyn,; žalią mygtuką su brūkšneliu, jei norite nutolinti; arba žalių rodyklių gretimoms žemėlapius.


METAR-TAF: